createdAt,value
2018-04-15T00:00:17.436Z,8.20
2018-04-15T00:00:51.935Z,8.20
2018-04-15T00:01:25.426Z,8.20
2018-04-15T00:01:59.238Z,8.20
2018-04-15T00:02:34.524Z,8.20
2018-04-15T00:03:08.260Z,8.20
2018-04-15T00:03:42.751Z,8.20
2018-04-15T00:04:16.482Z,8.20
2018-04-15T00:04:50.224Z,8.20
2018-04-15T00:05:23.968Z,8.20
2018-04-15T00:05:58.101Z,8.20
2018-04-15T00:06:31.821Z,8.20
2018-04-15T00:07:06.349Z,8.10
2018-04-15T00:07:40.088Z,8.10
2018-04-15T00:08:13.825Z,8.10
2018-04-15T00:08:47.555Z,8.10
2018-04-15T00:09:21.515Z,8.10
2018-04-15T00:09:56.008Z,8.10
2018-04-15T00:10:30.522Z,8.10
2018-04-15T00:11:05.034Z,8.10
2018-04-15T00:11:39.538Z,8.10
2018-04-15T00:12:14.058Z,8.10
2018-04-15T00:12:47.802Z,8.10
2018-04-15T00:13:21.536Z,8.10
2018-04-15T00:13:56.056Z,8.10
2018-04-15T00:14:29.797Z,8.10
2018-04-15T00:15:03.208Z,8.10
2018-04-15T00:15:37.164Z,8.10
2018-04-15T00:16:10.883Z,8.10
2018-04-15T00:16:44.614Z,8.10
2018-04-15T00:17:18.381Z,8.10
2018-04-15T00:17:52.906Z,8.10
2018-04-15T00:18:26.652Z,8.00
2018-04-15T00:19:00.382Z,8.10
2018-04-15T00:19:34.884Z,8.10
2018-04-15T00:20:10.600Z,8.00
2018-04-15T00:20:44.343Z,8.00
2018-04-15T00:21:17.854Z,8.00
2018-04-15T00:21:51.603Z,8.00
2018-04-15T00:22:25.698Z,8.00
2018-04-15T00:23:00.195Z,8.10
2018-04-15T00:23:34.704Z,8.10
2018-04-15T00:24:09.217Z,8.10
2018-04-15T00:24:43.710Z,8.10
2018-04-15T00:25:17.477Z,8.10
2018-04-15T00:25:51.211Z,8.10
2018-04-15T00:26:25.717Z,8.10
2018-04-15T00:27:00.223Z,8.10
2018-04-15T00:27:34.767Z,8.10
2018-04-15T00:28:08.511Z,8.10
2018-04-15T00:28:42.227Z,8.10
2018-04-15T00:29:16.737Z,8.10
2018-04-15T00:29:50.474Z,8.00
2018-04-15T00:30:24.208Z,8.10
2018-04-15T00:30:58.718Z,8.00
2018-04-15T00:31:33.228Z,8.00
2018-04-15T00:32:07.734Z,8.00
2018-04-15T00:32:42.240Z,8.00
2018-04-15T00:33:16.752Z,8.00
2018-04-15T00:33:51.252Z,8.00
2018-04-15T00:34:24.639Z,8.00
2018-04-15T00:34:58.371Z,8.00
2018-04-15T00:35:32.107Z,8.00
2018-04-15T00:36:05.514Z,8.00
2018-04-15T00:36:40.010Z,8.00
2018-04-15T00:37:14.509Z,8.00
2018-04-15T00:37:48.264Z,8.00
2018-04-15T00:38:21.996Z,8.00
2018-04-15T00:38:56.498Z,8.00
2018-04-15T00:39:30.233Z,8.00
2018-04-15T00:40:03.636Z,8.00
2018-04-15T00:40:37.362Z,8.00
2018-04-15T00:41:11.090Z,7.90
2018-04-15T00:41:44.821Z,8.00
2018-04-15T00:42:18.539Z,8.00
2018-04-15T00:42:52.293Z,8.00
2018-04-15T00:43:26.018Z,8.00
2018-04-15T00:43:59.768Z,8.00
2018-04-15T00:44:33.510Z,7.90
2018-04-15T00:45:07.249Z,7.90
2018-04-15T00:45:40.964Z,7.90
2018-04-15T00:46:14.382Z,7.90
2018-04-15T00:46:48.893Z,7.90
2018-04-15T00:47:23.396Z,7.90
2018-04-15T00:47:57.167Z,7.90
2018-04-15T00:48:30.931Z,7.90
2018-04-15T00:49:04.326Z,7.90
2018-04-15T00:49:38.081Z,7.90
2018-04-15T00:50:11.984Z,7.90
2018-04-15T00:50:45.721Z,7.90
2018-04-15T00:51:19.480Z,7.80
2018-04-15T00:51:53.226Z,7.90
2018-04-15T00:52:27.741Z,7.80
2018-04-15T00:53:02.266Z,7.80
2018-04-15T00:53:48.082Z,7.80
2018-04-15T00:54:21.825Z,7.80
2018-04-15T00:54:55.566Z,7.80
2018-04-15T00:55:29.289Z,7.80
2018-04-15T00:56:03.819Z,7.80
2018-04-15T00:56:37.599Z,7.80
2018-04-15T00:57:12.095Z,7.80
2018-04-15T00:57:46.615Z,7.80
2018-04-15T00:58:21.175Z,7.80
2018-04-15T00:58:54.910Z,7.80
2018-04-15T00:59:29.399Z,7.80
2018-04-15T01:00:03.137Z,7.80
2018-04-15T01:00:36.869Z,7.80
2018-04-15T01:01:10.592Z,7.80
2018-04-15T01:01:45.117Z,7.80
2018-04-15T01:02:18.852Z,7.80
2018-04-15T01:02:52.577Z,7.80
2018-04-15T01:03:26.325Z,7.80
2018-04-15T01:04:00.072Z,7.80
2018-04-15T01:04:34.575Z,7.80
2018-04-15T01:05:09.092Z,7.80
2018-04-15T01:05:42.896Z,7.70
2018-04-15T01:06:17.389Z,7.70
2018-04-15T01:06:51.894Z,7.80
2018-04-15T01:07:26.400Z,7.70
2018-04-15T01:08:00.903Z,7.80
2018-04-15T01:08:34.660Z,7.70
2018-04-15T01:09:07.728Z,7.80
2018-04-15T01:09:41.490Z,7.80
2018-04-15T01:10:14.568Z,7.70
2018-04-15T01:10:48.341Z,7.70
2018-04-15T01:11:22.845Z,7.70
2018-04-15T01:11:57.340Z,7.70
2018-04-15T01:12:31.071Z,7.70
2018-04-15T01:13:04.455Z,7.70
2018-04-15T01:13:38.216Z,7.70
2018-04-15T01:14:11.960Z,7.70
2018-04-15T01:14:45.698Z,7.70
2018-04-15T01:15:19.418Z,7.70
2018-04-15T01:15:53.191Z,7.70
2018-04-15T01:16:27.713Z,7.70
2018-04-15T01:17:01.446Z,7.60
2018-04-15T01:17:35.177Z,7.70
2018-04-15T01:18:09.683Z,7.70
2018-04-15T01:18:43.439Z,7.60
2018-04-15T01:19:17.188Z,7.70
2018-04-15T01:19:50.932Z,7.70
2018-04-15T01:20:24.332Z,7.60
2018-04-15T01:20:58.072Z,7.60
2018-04-15T01:21:31.820Z,7.60
2018-04-15T01:22:05.210Z,7.60
2018-04-15T01:22:39.704Z,7.60
2018-04-15T01:23:13.460Z,7.60
2018-04-15T01:23:47.226Z,7.60
2018-04-15T01:24:20.950Z,7.60
2018-04-15T01:24:54.741Z,7.60
2018-04-15T01:25:28.472Z,7.60
2018-04-15T01:26:02.976Z,7.60
2018-04-15T01:26:36.699Z,7.50
2018-04-15T01:27:10.424Z,7.50
2018-04-15T01:27:44.146Z,7.50
2018-04-15T01:28:17.874Z,7.50
2018-04-15T01:28:51.654Z,7.50
2018-04-15T01:29:25.397Z,7.50
2018-04-15T01:29:59.137Z,7.50
2018-04-15T01:30:32.866Z,7.50
2018-04-15T01:31:06.285Z,7.50
2018-04-15T01:31:40.025Z,7.50
2018-04-15T01:32:13.768Z,7.50
2018-04-15T01:32:47.504Z,7.50
2018-04-15T01:33:21.247Z,7.50
2018-04-15T01:33:55.002Z,7.50
2018-04-15T01:34:28.734Z,7.50
2018-04-15T01:35:02.453Z,7.50
2018-04-15T01:35:36.194Z,7.50
2018-04-15T01:36:09.928Z,7.50
2018-04-15T01:36:44.414Z,7.50
2018-04-15T01:37:18.947Z,7.50
2018-04-15T01:37:52.694Z,7.40
2018-04-15T01:38:26.427Z,7.50
2018-04-15T01:39:00.956Z,7.40
2018-04-15T01:39:34.697Z,7.40
2018-04-15T01:40:08.436Z,7.50
2018-04-15T01:40:42.177Z,7.40
2018-04-15T01:41:15.922Z,7.40
2018-04-15T01:41:49.667Z,7.40
2018-04-15T01:42:24.163Z,7.40
2018-04-15T01:42:57.909Z,7.40
2018-04-15T01:43:31.314Z,7.40
2018-04-15T01:44:05.090Z,7.40
2018-04-15T01:44:38.834Z,7.40
2018-04-15T01:45:12.592Z,7.40
2018-04-15T01:45:46.317Z,7.40
2018-04-15T01:46:20.051Z,7.40
2018-04-15T01:46:53.851Z,7.40
2018-04-15T01:47:27.593Z,7.40
2018-04-15T01:48:01.115Z,7.30
2018-04-15T01:48:34.848Z,7.40
2018-04-15T01:49:08.651Z,7.40
2018-04-15T01:49:42.549Z,7.30
2018-04-15T01:50:16.290Z,7.30
2018-04-15T01:50:50.045Z,7.30
2018-04-15T01:51:24.539Z,7.30
2018-04-15T01:51:58.051Z,7.30
2018-04-15T01:52:32.547Z,7.30
2018-04-15T01:53:06.290Z,7.30
2018-04-15T01:53:40.027Z,7.30
2018-04-15T01:54:14.561Z,7.30
2018-04-15T01:54:48.305Z,7.30
2018-04-15T01:55:22.036Z,7.30
2018-04-15T01:55:55.783Z,7.30
2018-04-15T01:56:29.505Z,7.30
2018-04-15T01:57:03.993Z,7.30
2018-04-15T01:57:37.736Z,7.20
2018-04-15T01:58:11.135Z,7.30
2018-04-15T01:58:44.872Z,7.20
2018-04-15T01:59:18.665Z,7.30
2018-04-15T01:59:53.169Z,7.30
2018-04-15T02:00:26.891Z,7.20
2018-04-15T02:01:00.612Z,7.20
2018-04-15T02:01:34.353Z,7.30
2018-04-15T02:02:08.853Z,7.20
2018-04-15T02:02:42.577Z,7.20
2018-04-15T02:03:16.288Z,7.20
2018-04-15T02:03:50.029Z,7.30
2018-04-15T02:04:23.802Z,7.20
2018-04-15T02:04:57.549Z,7.20
2018-04-15T02:05:31.297Z,7.20
2018-04-15T02:06:04.713Z,7.20
2018-04-15T02:06:38.450Z,7.20
2018-04-15T02:07:12.177Z,7.20
2018-04-15T02:07:46.674Z,7.20
2018-04-15T02:08:20.420Z,7.20
2018-04-15T02:08:54.152Z,7.20
2018-04-15T02:09:27.920Z,7.20
2018-04-15T02:10:01.649Z,7.20
2018-04-15T02:10:36.166Z,7.20
2018-04-15T02:11:10.664Z,7.20
2018-04-15T02:11:45.172Z,7.20
2018-04-15T02:12:18.897Z,7.20
2018-04-15T02:12:52.645Z,7.20
2018-04-15T02:13:26.160Z,7.30
2018-04-15T02:13:59.693Z,7.30
2018-04-15T02:14:33.456Z,7.30
2018-04-15T02:15:06.844Z,7.30
2018-04-15T02:15:40.615Z,7.30
2018-04-15T02:16:14.118Z,7.30
2018-04-15T02:16:47.855Z,7.30
2018-04-15T02:17:21.585Z,7.30
2018-04-15T02:17:55.328Z,7.30
2018-04-15T02:18:29.053Z,7.30
2018-04-15T02:19:03.322Z,7.30
2018-04-15T02:19:37.073Z,7.30
2018-04-15T02:20:10.813Z,7.30
2018-04-15T02:20:44.547Z,7.30
2018-04-15T02:21:18.287Z,7.30
2018-04-15T02:21:52.010Z,7.30
2018-04-15T02:22:26.513Z,7.30
2018-04-15T02:23:01.005Z,7.30
2018-04-15T02:23:34.735Z,7.30
2018-04-15T02:24:08.487Z,7.30
2018-04-15T02:24:42.237Z,7.30
2018-04-15T02:25:16.176Z,7.30
2018-04-15T02:25:49.925Z,7.30
2018-04-15T02:26:23.657Z,7.30
2018-04-15T02:26:57.425Z,7.30
2018-04-15T02:27:31.161Z,7.30
2018-04-15T02:28:05.339Z,7.30
2018-04-15T02:28:39.165Z,7.30
2018-04-15T02:29:12.919Z,7.30
2018-04-15T02:29:46.690Z,7.30
2018-04-15T02:30:20.617Z,7.30
2018-04-15T02:30:54.351Z,7.30
2018-04-15T02:31:28.095Z,7.30
2018-04-15T02:32:01.847Z,7.40
2018-04-15T02:32:35.573Z,7.40
2018-04-15T02:33:09.341Z,7.40
2018-04-15T02:33:43.077Z,7.40
2018-04-15T02:34:17.000Z,7.40
2018-04-15T02:34:50.997Z,7.40
2018-04-15T02:35:24.733Z,7.40
2018-04-15T02:35:58.470Z,7.40
2018-04-15T02:36:32.205Z,7.50
2018-04-15T02:37:05.953Z,7.50
2018-04-15T02:37:39.691Z,7.50
2018-04-15T02:38:13.418Z,7.50
2018-04-15T02:38:47.695Z,7.50
2018-04-15T02:39:21.210Z,7.50
2018-04-15T02:39:55.765Z,7.50
2018-04-15T02:40:29.498Z,7.60
2018-04-15T02:41:04.015Z,7.60
2018-04-15T02:41:38.286Z,7.60
2018-04-15T02:42:11.836Z,7.60
2018-04-15T02:42:45.341Z,7.60
2018-04-15T02:43:19.189Z,7.60
2018-04-15T02:43:53.687Z,7.60
2018-04-15T02:44:28.204Z,7.70
2018-04-15T02:45:02.718Z,7.60
2018-04-15T02:45:37.223Z,7.70
2018-04-15T02:46:11.729Z,7.70
2018-04-15T02:46:46.245Z,7.70
2018-04-15T02:47:20.755Z,7.70
2018-04-15T02:47:55.267Z,7.70
2018-04-15T02:48:28.697Z,7.70
2018-04-15T02:49:02.435Z,7.70
2018-04-15T02:49:36.945Z,7.80
2018-04-15T02:50:11.475Z,7.80
2018-04-15T02:50:45.217Z,7.80
2018-04-15T02:51:18.949Z,7.80
2018-04-15T02:51:52.691Z,7.80
2018-04-15T02:52:26.433Z,7.90
2018-04-15T02:53:00.171Z,7.90
2018-04-15T02:53:33.904Z,7.90
2018-04-15T02:54:07.669Z,7.90
2018-04-15T02:54:41.420Z,7.90
2018-04-15T02:55:14.867Z,8.00
2018-04-15T02:55:48.607Z,7.90
2018-04-15T02:56:22.349Z,8.00
2018-04-15T02:56:56.844Z,8.00
2018-04-15T02:57:31.344Z,8.00
2018-04-15T02:58:06.597Z,8.00
2018-04-15T02:58:41.102Z,8.00
2018-04-15T02:59:14.842Z,8.00
2018-04-15T02:59:48.575Z,8.00
2018-04-15T03:00:22.785Z,8.10
2018-04-15T03:00:56.532Z,8.10
2018-04-15T03:01:30.287Z,8.10
2018-04-15T03:02:04.029Z,8.10
2018-04-15T03:02:37.763Z,8.10
2018-04-15T03:03:12.258Z,8.10
2018-04-15T03:03:46.534Z,8.10
2018-04-15T03:04:20.038Z,8.10
2018-04-15T03:04:56.771Z,8.20
2018-04-15T03:05:30.534Z,8.20
2018-04-15T03:06:03.937Z,8.20
2018-04-15T03:06:37.695Z,8.20
2018-04-15T03:07:11.443Z,8.20
2018-04-15T03:07:45.182Z,8.20
2018-04-15T03:08:18.912Z,8.20
2018-04-15T03:08:52.645Z,8.20
2018-04-15T03:09:27.167Z,8.30
2018-04-15T03:10:00.909Z,8.30
2018-04-15T03:10:34.483Z,8.30
2018-04-15T03:11:08.219Z,8.30
2018-04-15T03:11:42.728Z,8.30
2018-04-15T03:12:17.236Z,8.30
2018-04-15T03:12:51.770Z,8.30
2018-04-15T03:13:25.504Z,8.30
2018-04-15T03:13:59.233Z,8.40
2018-04-15T03:14:33.732Z,8.40
2018-04-15T03:15:08.263Z,8.40
2018-04-15T03:15:42.043Z,8.40
2018-04-15T03:16:16.534Z,8.40
2018-04-15T03:16:50.257Z,8.40
2018-04-15T03:17:23.991Z,8.40
2018-04-15T03:17:57.749Z,8.40
2018-04-15T03:18:31.481Z,8.40
2018-04-15T03:19:05.205Z,8.50
2018-04-15T03:19:39.691Z,8.50
2018-04-15T03:20:13.416Z,8.50
2018-04-15T03:20:47.174Z,8.50
2018-04-15T03:21:20.908Z,8.50
2018-04-15T03:21:54.653Z,8.50
2018-04-15T03:22:28.375Z,8.50
2018-04-15T03:23:02.872Z,8.50
2018-04-15T03:23:37.375Z,8.60
2018-04-15T03:24:11.871Z,8.50
2018-04-15T03:24:45.627Z,8.60
2018-04-15T03:25:19.353Z,8.60
2018-04-15T03:25:53.129Z,8.60
2018-04-15T03:26:26.849Z,8.60
2018-04-15T03:27:00.570Z,8.60
2018-04-15T03:27:34.295Z,8.60
2018-04-15T03:28:08.030Z,8.60
2018-04-15T03:28:42.529Z,8.60
2018-04-15T03:29:17.027Z,8.60
2018-04-15T03:29:50.749Z,8.60
2018-04-15T03:30:24.143Z,8.60
2018-04-15T03:30:57.907Z,8.60
2018-04-15T03:31:32.416Z,8.60
2018-04-15T03:32:06.907Z,8.60
2018-04-15T03:32:40.639Z,8.60
2018-04-15T03:33:14.371Z,8.60
2018-04-15T03:33:48.087Z,8.60
2018-04-15T03:34:21.823Z,8.60
2018-04-15T03:34:55.559Z,8.60
2018-04-15T03:35:29.292Z,8.60
2018-04-15T03:36:03.050Z,8.60
2018-04-15T03:36:36.794Z,8.60
2018-04-15T03:37:10.519Z,8.60
2018-04-15T03:37:44.253Z,8.60
2018-04-15T03:38:17.979Z,8.60
2018-04-15T03:38:51.705Z,8.60
2018-04-15T03:39:25.425Z,8.60
2018-04-15T03:39:59.149Z,8.60
2018-04-15T03:40:32.607Z,8.60
2018-04-15T03:41:06.365Z,8.60
2018-04-15T03:41:40.086Z,8.60
2018-04-15T03:42:13.809Z,8.60
2018-04-15T03:42:47.546Z,8.60
2018-04-15T03:43:22.037Z,8.60
2018-04-15T03:43:55.990Z,8.60
2018-04-15T03:44:29.628Z,8.60
2018-04-15T03:45:03.340Z,8.60
2018-04-15T03:45:37.837Z,8.60
2018-04-15T03:46:12.023Z,8.60
2018-04-15T03:46:45.751Z,8.60
2018-04-15T03:47:19.475Z,8.60
2018-04-15T03:47:53.217Z,8.60
2018-04-15T03:48:27.712Z,8.60
2018-04-15T03:49:01.442Z,8.60
2018-04-15T03:49:35.170Z,8.70
2018-04-15T03:50:08.901Z,8.60
2018-04-15T03:50:43.391Z,8.70
2018-04-15T03:51:17.168Z,8.60
2018-04-15T03:51:50.902Z,8.60
2018-04-15T03:52:24.633Z,8.60
2018-04-15T03:52:58.357Z,8.70
2018-04-15T03:53:32.093Z,8.60
2018-04-15T03:54:05.492Z,8.70
2018-04-15T03:54:39.231Z,8.70
2018-04-15T03:55:14.683Z,8.70
2018-04-15T03:55:48.411Z,8.60
2018-04-15T03:56:22.188Z,8.70
2018-04-15T03:56:55.903Z,8.70
2018-04-15T03:57:29.631Z,8.60
2018-04-15T03:58:04.135Z,8.60
2018-04-15T03:58:39.465Z,8.60
2018-04-15T03:59:13.961Z,8.70
2018-04-15T03:59:48.485Z,8.60
2018-04-15T04:00:22.973Z,8.60
2018-04-15T04:00:56.698Z,8.60
2018-04-15T04:01:30.460Z,8.70
2018-04-15T04:02:04.198Z,8.70
2018-04-15T04:02:37.931Z,8.70
2018-04-15T04:03:11.326Z,8.60
2018-04-15T04:03:45.524Z,8.60
2018-04-15T04:04:19.449Z,8.60
2018-04-15T04:04:53.943Z,8.60
2018-04-15T04:05:28.458Z,8.60
2018-04-15T04:06:02.961Z,8.60
2018-04-15T04:06:37.477Z,8.70
2018-04-15T04:07:11.963Z,8.70
2018-04-15T04:07:45.701Z,8.70
2018-04-15T04:08:19.419Z,8.70
2018-04-15T04:08:53.153Z,8.70
2018-04-15T04:09:27.639Z,8.70
2018-04-15T04:10:01.366Z,8.70
2018-04-15T04:10:35.103Z,8.70
2018-04-15T04:11:08.836Z,8.70
2018-04-15T04:11:43.351Z,8.70
2018-04-15T04:12:17.852Z,8.70
2018-04-15T04:12:52.360Z,8.70
2018-04-15T04:13:26.645Z,8.70
2018-04-15T04:14:00.361Z,8.70
2018-04-15T04:14:34.865Z,8.70
2018-04-15T04:15:09.373Z,8.80
2018-04-15T04:15:43.637Z,8.80
2018-04-15T04:16:17.365Z,8.80
2018-04-15T04:16:51.907Z,8.80
2018-04-15T04:17:36.840Z,8.80
2018-04-15T04:18:22.252Z,8.80
2018-04-15T04:19:06.991Z,8.80
2018-04-15T04:19:51.879Z,8.80
2018-04-15T04:20:36.753Z,8.80
2018-04-15T04:21:31.284Z,8.80
2018-04-15T04:22:16.339Z,8.80
2018-04-15T04:23:01.181Z,8.80
2018-04-15T04:23:46.117Z,8.80
2018-04-15T04:24:31.128Z,8.80
2018-04-15T04:25:37.840Z,8.80
2018-04-15T04:26:11.565Z,8.90
2018-04-15T04:26:45.305Z,8.90
2018-04-15T04:27:19.808Z,8.90
2018-04-15T04:27:54.328Z,8.90
2018-04-15T04:28:28.046Z,8.90
2018-04-15T04:29:01.772Z,8.90
2018-04-15T04:29:36.282Z,8.90
2018-04-15T04:30:10.792Z,8.90
2018-04-15T04:30:45.311Z,9.00
2018-04-15T04:31:19.048Z,8.90
2018-04-15T04:31:52.778Z,8.90
2018-04-15T04:32:26.549Z,8.90
2018-04-15T04:33:00.801Z,8.90
2018-04-15T04:33:35.305Z,8.90
2018-04-15T04:34:09.805Z,9.00
2018-04-15T04:34:44.315Z,9.00
2018-04-15T04:35:18.810Z,9.00
2018-04-15T04:35:52.550Z,9.00
2018-04-15T04:36:26.302Z,9.00
2018-04-15T04:37:00.798Z,9.00
2018-04-15T04:37:34.554Z,9.00
2018-04-15T04:38:08.298Z,9.00
2018-04-15T04:38:42.810Z,9.00
2018-04-15T04:39:17.322Z,9.00
2018-04-15T04:39:51.819Z,9.00
2018-04-15T04:40:26.329Z,9.00
2018-04-15T04:41:00.822Z,9.00
2018-04-15T04:41:34.584Z,9.00
2018-04-15T04:42:08.324Z,9.00
2018-04-15T04:42:42.854Z,9.00
2018-04-15T04:43:16.316Z,9.00
2018-04-15T04:43:50.824Z,9.00
2018-04-15T04:44:24.552Z,9.00
2018-04-15T04:44:58.349Z,9.00
2018-04-15T04:45:32.218Z,9.00
2018-04-15T04:46:06.766Z,9.00
2018-04-15T04:46:40.500Z,9.00
2018-04-15T04:47:14.241Z,9.00
2018-04-15T04:47:48.507Z,9.00
2018-04-15T04:48:22.675Z,9.00
2018-04-15T04:48:56.418Z,9.00
2018-04-15T04:49:30.174Z,9.00
2018-04-15T04:50:03.298Z,9.00
2018-04-15T04:50:37.034Z,9.00
2018-04-15T04:51:12.115Z,9.00
2018-04-15T04:51:45.831Z,9.00
2018-04-15T04:52:19.567Z,9.00
2018-04-15T04:52:54.100Z,9.00
2018-04-15T04:53:27.840Z,9.00
2018-04-15T04:54:01.571Z,9.00
2018-04-15T04:54:35.324Z,9.00
2018-04-15T04:55:09.062Z,9.00
2018-04-15T04:55:42.790Z,9.00
2018-04-15T04:56:16.519Z,9.00
2018-04-15T04:56:51.036Z,9.00
2018-04-15T04:57:25.535Z,9.00
2018-04-15T04:58:00.064Z,9.00
2018-04-15T04:58:33.802Z,9.00
2018-04-15T04:59:07.534Z,9.00
2018-04-15T04:59:41.000Z,9.00
2018-04-15T05:00:14.458Z,9.00
2018-04-15T05:00:48.686Z,9.00
2018-04-15T05:01:22.478Z,9.00
2018-04-15T05:01:56.990Z,9.00
2018-04-15T05:02:31.500Z,9.00
2018-04-15T05:03:06.016Z,8.90
2018-04-15T05:03:40.514Z,8.90
2018-04-15T05:04:14.252Z,9.00
2018-04-15T05:04:47.996Z,9.00
2018-04-15T05:05:21.751Z,9.00
2018-04-15T05:05:56.390Z,9.00
2018-04-15T05:06:29.876Z,9.00
2018-04-15T05:07:03.627Z,9.00
2018-04-15T05:07:37.387Z,9.00
2018-04-15T05:08:11.324Z,9.00
2018-04-15T05:08:45.253Z,9.00
2018-04-15T05:09:19.044Z,9.00
2018-04-15T05:09:52.773Z,9.00
2018-04-15T05:10:26.226Z,9.00
2018-04-15T05:10:59.968Z,9.00
2018-04-15T05:11:33.704Z,9.00
2018-04-15T05:12:07.431Z,9.00
2018-04-15T05:12:40.905Z,9.10
2018-04-15T05:13:14.382Z,9.10
2018-04-15T05:13:47.829Z,9.10
2018-04-15T05:14:21.564Z,9.00
2018-04-15T05:14:55.306Z,9.10
2018-04-15T05:15:29.043Z,9.00
2018-04-15T05:16:03.552Z,9.00
2018-04-15T05:16:38.073Z,9.10
2018-04-15T05:17:11.837Z,9.00
2018-04-15T05:17:45.762Z,9.10
2018-04-15T05:18:19.533Z,9.10
2018-04-15T05:18:54.032Z,9.10
2018-04-15T05:19:27.778Z,9.10
2018-04-15T05:20:01.512Z,9.10
2018-04-15T05:20:35.251Z,9.10
2018-04-15T05:21:08.976Z,9.10
2018-04-15T05:21:42.714Z,9.10
2018-04-15T05:22:16.448Z,9.10
2018-04-15T05:22:50.195Z,9.10
2018-04-15T05:23:24.724Z,9.10
2018-04-15T05:23:58.468Z,9.10
2018-04-15T05:24:32.982Z,9.10
2018-04-15T05:25:07.503Z,9.20
2018-04-15T05:25:41.990Z,9.20
2018-04-15T05:26:15.720Z,9.20
2018-04-15T05:26:49.446Z,9.20
2018-04-15T05:27:23.159Z,9.20
2018-04-15T05:27:56.887Z,9.20
2018-04-15T05:28:31.394Z,9.20
2018-04-15T05:29:05.126Z,9.20
2018-04-15T05:29:38.861Z,9.20
2018-04-15T05:30:13.138Z,9.20
2018-04-15T05:30:46.895Z,9.20
2018-04-15T05:31:20.617Z,9.30
2018-04-15T05:31:54.366Z,9.30
2018-04-15T05:32:28.100Z,9.30
2018-04-15T05:33:01.571Z,9.30
2018-04-15T05:33:35.102Z,9.30
2018-04-15T05:34:09.633Z,9.40
2018-04-15T05:34:43.382Z,9.30
2018-04-15T05:35:17.130Z,9.40
2018-04-15T05:35:50.592Z,9.40
2018-04-15T05:36:24.094Z,9.40
2018-04-15T05:36:57.925Z,9.40
2018-04-15T05:37:31.721Z,9.40
2018-04-15T05:38:05.595Z,9.40
2018-04-15T05:38:39.375Z,9.50
2018-04-15T05:39:12.832Z,9.40
2018-04-15T05:39:46.562Z,9.50
2018-04-15T05:40:20.298Z,9.50
2018-04-15T05:40:54.792Z,9.50
2018-04-15T05:41:28.519Z,9.50
2018-04-15T05:42:02.311Z,9.50
2018-04-15T05:42:36.054Z,9.50
2018-04-15T05:43:09.788Z,9.50
2018-04-15T05:43:43.562Z,9.60
2018-04-15T05:44:18.055Z,9.60
2018-04-15T05:44:51.780Z,9.60
2018-04-15T05:45:25.536Z,9.60
2018-04-15T05:45:59.268Z,9.60
2018-04-15T05:46:32.740Z,9.60
2018-04-15T05:47:06.228Z,9.60
2018-04-15T05:47:40.020Z,9.60
2018-04-15T05:48:13.627Z,9.60
2018-04-15T05:48:47.130Z,9.60
2018-04-15T05:49:20.886Z,9.70
2018-04-15T05:49:54.355Z,9.60
2018-04-15T05:50:28.870Z,9.70
2018-04-15T05:51:03.423Z,9.70
2018-04-15T05:51:37.182Z,9.70
2018-04-15T05:52:11.692Z,9.70
2018-04-15T05:52:45.432Z,9.70
2018-04-15T05:53:19.672Z,9.70
2018-04-15T05:53:53.207Z,9.70
2018-04-15T05:54:27.146Z,9.70
2018-04-15T05:55:00.618Z,9.70
2018-04-15T05:55:34.862Z,9.70
2018-04-15T05:56:08.326Z,9.70
2018-04-15T05:56:42.830Z,9.70
2018-04-15T05:57:17.325Z,9.70
2018-04-15T05:57:51.078Z,9.70
2018-04-15T05:58:24.538Z,9.70
2018-04-15T05:58:58.293Z,9.70
2018-04-15T05:59:31.766Z,9.60
2018-04-15T06:00:05.698Z,9.70
2018-04-15T06:00:39.154Z,9.70
2018-04-15T06:01:12.622Z,9.70
2018-04-15T06:01:46.087Z,9.70
2018-04-15T06:02:19.557Z,9.70
2018-04-15T06:02:53.024Z,9.70
2018-04-15T06:03:26.486Z,9.70
2018-04-15T06:03:59.982Z,9.70
2018-04-15T06:04:34.476Z,9.80
2018-04-15T06:05:08.693Z,9.80
2018-04-15T06:05:42.440Z,9.80
2018-04-15T06:06:15.898Z,9.80
2018-04-15T06:06:49.353Z,9.80
2018-04-15T06:07:22.846Z,9.80
2018-04-15T06:07:56.310Z,9.90
2018-04-15T06:08:30.036Z,9.90
2018-04-15T06:09:03.236Z,9.90
2018-04-15T06:09:36.960Z,9.90
2018-04-15T06:10:11.458Z,9.90
2018-04-15T06:10:45.689Z,9.90
2018-04-15T06:11:20.221Z,9.90
2018-04-15T06:11:53.689Z,9.90
2018-04-15T06:12:28.193Z,10.00
2018-04-15T06:13:02.709Z,10.00
2018-04-15T06:13:36.150Z,10.00
2018-04-15T06:14:09.946Z,10.00
2018-04-15T06:14:44.199Z,10.10
2018-04-15T06:15:17.683Z,10.00
2018-04-15T06:15:51.150Z,10.10
2018-04-15T06:16:24.809Z,10.10
2018-04-15T06:16:59.045Z,10.10
2018-04-15T06:17:32.195Z,10.10
2018-04-15T06:18:06.439Z,10.20
2018-04-15T06:18:40.955Z,10.20
2018-04-15T06:19:14.717Z,10.20
2018-04-15T06:19:48.441Z,10.20
2018-04-15T06:20:21.918Z,10.30
2018-04-15T06:20:56.455Z,10.30
2018-04-15T06:21:29.687Z,10.30
2018-04-15T06:22:03.141Z,10.30
2018-04-15T06:22:37.375Z,10.30
2018-04-15T06:23:11.883Z,10.30
2018-04-15T06:23:45.338Z,10.30
2018-04-15T06:24:19.621Z,10.30
2018-04-15T06:24:53.085Z,10.30
2018-04-15T06:25:26.556Z,10.30
2018-04-15T06:26:00.025Z,10.30
2018-04-15T06:26:33.523Z,10.30
2018-04-15T06:27:06.988Z,10.40
2018-04-15T06:27:40.444Z,10.30
2018-04-15T06:28:14.189Z,10.30
2018-04-15T06:28:47.649Z,10.40
2018-04-15T06:29:21.137Z,10.40
2018-04-15T06:29:54.868Z,10.40
2018-04-15T06:30:28.392Z,10.40
2018-04-15T06:31:02.643Z,10.40
2018-04-15T06:31:36.121Z,10.40
2018-04-15T06:32:10.632Z,10.50
2018-04-15T06:32:45.134Z,10.50
2018-04-15T06:33:18.598Z,10.50
2018-04-15T06:33:52.054Z,10.50
2018-04-15T06:34:25.538Z,10.50
2018-04-15T06:34:59.182Z,10.50
2018-04-15T06:35:32.650Z,10.50
2018-04-15T06:36:05.793Z,10.60
2018-04-15T06:36:40.089Z,10.60
2018-04-15T06:37:14.456Z,10.60
2018-04-15T06:37:47.911Z,10.60
2018-04-15T06:38:22.137Z,10.60
2018-04-15T06:38:55.599Z,10.60
2018-04-15T06:39:29.850Z,10.70
2018-04-15T06:40:03.313Z,10.60
2018-04-15T06:40:36.766Z,10.70
2018-04-15T06:41:10.997Z,10.70
2018-04-15T06:41:44.458Z,10.70
2018-04-15T06:42:17.916Z,10.80
2018-04-15T06:42:51.812Z,10.80
2018-04-15T06:43:26.062Z,10.80
2018-04-15T06:43:59.570Z,10.80
2018-04-15T06:44:33.060Z,10.80
2018-04-15T06:45:06.314Z,10.90
2018-04-15T06:45:39.798Z,10.90
2018-04-15T06:46:13.282Z,10.90
2018-04-15T06:46:47.790Z,11.00
2018-04-15T06:47:21.274Z,10.90
2018-04-15T06:47:54.734Z,11.00
2018-04-15T06:48:28.962Z,11.10
2018-04-15T06:49:02.432Z,11.00
2018-04-15T06:49:35.944Z,11.10
2018-04-15T06:50:09.390Z,11.10
2018-04-15T06:50:43.638Z,11.20
2018-04-15T06:51:17.103Z,11.20
2018-04-15T06:51:50.349Z,11.20
2018-04-15T06:52:24.587Z,11.30
2018-04-15T06:52:58.067Z,11.30
2018-04-15T06:53:31.540Z,11.30
2018-04-15T06:54:04.996Z,11.40
2018-04-15T06:54:38.506Z,11.40
2018-04-15T06:55:11.985Z,11.40
2018-04-15T06:55:46.244Z,11.50
2018-04-15T06:56:19.881Z,11.50
2018-04-15T06:56:53.388Z,11.50
2018-04-15T06:57:26.862Z,11.50
2018-04-15T06:58:00.328Z,11.60
2018-04-15T06:58:34.546Z,11.70
2018-04-15T06:59:08.052Z,11.70
2018-04-15T06:59:41.554Z,11.70
2018-04-15T07:00:15.022Z,11.80
2018-04-15T07:00:48.486Z,11.80
2018-04-15T07:01:21.954Z,11.80
2018-04-15T07:01:56.215Z,11.90
2018-04-15T07:02:29.681Z,11.90
2018-04-15T07:03:03.145Z,12.00
2018-04-15T07:03:36.617Z,12.00
2018-04-15T07:04:10.841Z,12.10
2018-04-15T07:04:44.326Z,12.10
2018-04-15T07:05:17.795Z,12.10
2018-04-15T07:05:52.023Z,12.20
2018-04-15T07:06:25.495Z,12.20
2018-04-15T07:06:58.991Z,12.30
2018-04-15T07:07:32.476Z,12.30
2018-04-15T07:08:05.932Z,12.40
2018-04-15T07:08:40.162Z,12.50
2018-04-15T07:09:13.401Z,12.40
2018-04-15T07:09:47.438Z,12.50
2018-04-15T07:10:20.908Z,12.50
2018-04-15T07:10:54.367Z,12.60
2018-04-15T07:11:28.628Z,12.70
2018-04-15T07:12:02.098Z,12.60
2018-04-15T07:12:35.569Z,12.70
2018-04-15T07:13:09.166Z,12.80
2018-04-15T07:13:42.625Z,12.90
2018-04-15T07:14:16.862Z,13.00
2018-04-15T07:14:50.360Z,12.90
2018-04-15T07:15:23.820Z,13.00
2018-04-15T07:15:57.275Z,13.10
2018-04-15T07:16:31.533Z,13.20
2018-04-15T07:17:04.832Z,13.20
2018-04-15T07:17:38.297Z,13.30
2018-04-15T07:18:11.441Z,13.30
2018-04-15T07:18:44.936Z,13.40
2018-04-15T07:19:18.392Z,13.40
2018-04-15T07:19:52.670Z,13.50
2018-04-15T07:20:26.137Z,13.50
2018-04-15T07:20:59.594Z,13.60
2018-04-15T07:21:33.242Z,13.60
2018-04-15T07:22:06.716Z,13.60
2018-04-15T07:22:40.186Z,13.70
2018-04-15T07:23:13.667Z,13.70
2018-04-15T07:23:47.142Z,13.80
2018-04-15T07:24:20.623Z,13.90
2018-04-15T07:24:54.294Z,13.90
2018-04-15T07:25:27.761Z,14.00
2018-04-15T07:26:01.984Z,14.00
2018-04-15T07:26:35.457Z,14.00
2018-04-15T07:27:08.910Z,14.10
2018-04-15T07:27:42.399Z,14.10
2018-04-15T07:28:16.627Z,14.20
2018-04-15T07:28:50.092Z,14.20
2018-04-15T07:29:24.310Z,14.30
2018-04-15T07:29:57.805Z,14.20
2018-04-15T07:30:31.276Z,14.30
2018-04-15T07:31:05.515Z,14.20